Pubnico, Canada
Current Conditions -  °F | °C
As of 12:00 AM on Monday 24 Nov 2014 (Local Time) from CYQI Reporting Station
Haze Haze  
Wind Chill: 37°   Ceiling: Unl
Heat Index: 37°   Visibility: 5mi
Dew Point: 37°   Wind: 3mph
Humidity: 100%   Direction: 100°E
Pressure: 30.21"   Gusts: NA
Location:  43.7°N, 65.78°W
Report Text: CYQI 240400Z 10003KT 5SM BR SKC 03/03 A3021 RMK FG1 VIS S 3/4 SLP230
Loading
Personal Weather Stations






























Interactive Weather Map New forecast layout! Learn more

10-Day Weather Forecast

Advertisements
Track Severe Weather on mobile